LEAL/ALC METAR and TAF weather

Enter ICAO airport designator
Station Type Date Time Source
LEAL METAR 2020/04/03 22:30 UTC NOAA

LEAL 032230Z 35002KT CAVOK 11/08 Q1019 NOSIG


Station Type Date Time Source
LEAL Decoded METAR 2020/04/03 22:30 UTC NOAA

Alicante / El Altet, Spain (LEAL) 38-17N 000-33W 31M
Apr 03, 2020 - 06:30 PM EDT / 2020.04.03 2230 UTC
Wind: from the N (350 degrees) at 2 MPH (2 KT):0
Visibility: greater than 7 mile(s):0
Temperature: 51 F (11 C)
Dew Point: 46 F (8 C)
Relative Humidity: 81%
Pressure (altimeter): 30.09 in. Hg (1019 hPa)
ob: LEAL 032230Z 35002KT CAVOK 11/08 Q1019 NOSIG
cycle: 22

Station Type Date Time Source
LEAL TAF 2020/04/03 18:27 UTC NOAA

TAF TAF LEAL 031700Z 0318/0418 11010KT 9999 SCT025 TX18/0412Z TN09/0406Z
BECMG 0318/0320 VRB03KT
BECMG 0408/0410 09010KT

Example: see airport list